createdAt,value
2018-03-29T00:01:19.151Z,65.87
2018-03-29T00:03:48.189Z,68.28
2018-03-29T00:06:17.199Z,68.60
2018-03-29T00:08:46.321Z,65.20
2018-03-29T00:11:15.419Z,66.00
2018-03-29T00:13:44.505Z,69.43
2018-03-29T00:16:13.623Z,78.20
2018-03-29T00:18:42.765Z,85.40
2018-03-29T00:21:11.761Z,89.28
2018-03-29T00:23:40.889Z,90.07
2018-03-29T00:26:09.857Z,105.45
2018-03-29T00:28:39.008Z,98.53
2018-03-29T00:31:08.051Z,103.00
2018-03-29T00:33:37.038Z,104.65
2018-03-29T00:36:06.209Z,100.47
2018-03-29T00:38:35.235Z,107.70
2018-03-29T00:41:04.224Z,110.12
2018-03-29T00:43:33.209Z,110.07
2018-03-29T00:46:03.281Z,103.85
2018-03-29T00:48:32.398Z,106.82
2018-03-29T00:51:01.729Z,110.28
2018-03-29T00:53:42.109Z,125.50
2018-03-29T00:56:11.604Z,123.18
2018-03-29T00:58:40.825Z,113.00
2018-03-29T01:01:10.137Z,109.65
2018-03-29T01:03:39.511Z,120.60
2018-03-29T01:06:09.434Z,117.97
2018-03-29T01:08:38.653Z,123.82
2018-03-29T01:11:07.974Z,115.37
2018-03-29T01:13:37.174Z,122.87
2018-03-29T01:16:06.466Z,130.02
2018-03-29T01:18:35.685Z,137.52
2018-03-29T01:21:05.169Z,137.50
2018-03-29T01:23:34.313Z,126.97
2018-03-29T01:26:03.509Z,132.93
2018-03-29T01:28:32.864Z,130.05
2018-03-29T01:31:02.223Z,135.37
2018-03-29T01:33:31.418Z,123.22
2018-03-29T01:36:00.959Z,122.43
2018-03-29T01:38:30.353Z,119.50
2018-03-29T01:40:59.660Z,102.97
2018-03-29T01:43:29.452Z,106.20
2018-03-29T01:45:58.594Z,98.87
2018-03-29T01:48:27.726Z,96.30
2018-03-29T01:50:56.817Z,94.68
2018-03-29T01:53:26.089Z,90.05
2018-03-29T01:55:55.357Z,87.12
2018-03-29T01:58:24.417Z,81.63
2018-03-29T02:00:53.783Z,76.30
2018-03-29T02:03:22.811Z,77.12
2018-03-29T02:05:52.042Z,77.72
2018-03-29T02:08:21.366Z,76.55
2018-03-29T02:10:50.598Z,83.22
2018-03-29T02:13:19.758Z,79.87
2018-03-29T02:15:48.937Z,84.55
2018-03-29T02:18:18.461Z,76.30
2018-03-29T02:20:47.651Z,77.72
2018-03-29T02:23:16.805Z,70.80
2018-03-29T02:25:46.753Z,67.53
2018-03-29T02:28:15.957Z,67.12
2018-03-29T02:30:45.130Z,72.37
2018-03-29T02:33:14.315Z,79.37
2018-03-29T02:35:43.673Z,81.47
2018-03-29T02:38:12.842Z,74.95
2018-03-29T02:40:42.165Z,66.80
2018-03-29T02:43:11.216Z,71.25
2018-03-29T02:45:40.519Z,67.55
2018-03-29T02:48:09.658Z,76.95
2018-03-29T02:50:38.698Z,79.37
2018-03-29T02:53:07.851Z,78.60
2018-03-29T02:55:37.225Z,75.22
2018-03-29T02:58:06.357Z,65.75
2018-03-29T03:00:35.429Z,65.20
2018-03-29T03:03:04.597Z,60.70
2018-03-29T03:05:33.790Z,67.18
2018-03-29T03:08:03.030Z,68.97
2018-03-29T03:10:32.229Z,62.92
2018-03-29T03:13:01.509Z,69.80
2018-03-29T03:15:30.758Z,64.10
2018-03-29T03:17:59.988Z,65.72
2018-03-29T03:20:29.191Z,67.12
2018-03-29T03:22:58.613Z,68.60
2018-03-29T03:25:27.932Z,62.62
2018-03-29T03:27:57.110Z,66.37
2018-03-29T03:30:26.287Z,68.03
2018-03-29T03:32:55.581Z,71.68
2018-03-29T03:35:24.841Z,75.62
2018-03-29T03:37:54.110Z,77.78
2018-03-29T03:40:23.246Z,71.10
2018-03-29T03:42:52.473Z,70.70
2018-03-29T03:45:21.970Z,73.00
2018-03-29T03:47:51.206Z,78.20
2018-03-29T03:50:20.386Z,73.53
2018-03-29T03:52:49.517Z,79.40
2018-03-29T03:55:18.579Z,79.70
2018-03-29T03:57:47.778Z,81.05
2018-03-29T04:00:16.937Z,83.28
2018-03-29T04:02:46.324Z,85.65
2018-03-29T04:05:15.402Z,86.07
2018-03-29T04:07:44.615Z,87.93
2018-03-29T04:10:13.771Z,93.25
2018-03-29T04:12:42.914Z,102.40
2018-03-29T04:15:13.093Z,105.45
2018-03-29T04:17:42.283Z,105.20
2018-03-29T04:20:11.409Z,99.28
2018-03-29T04:22:40.802Z,89.62
2018-03-29T04:25:10.066Z,84.53
2018-03-29T04:27:39.345Z,83.43
2018-03-29T04:30:08.478Z,77.22
2018-03-29T04:32:37.773Z,74.43
2018-03-29T04:35:06.927Z,67.93
2018-03-29T04:37:36.834Z,71.32
2018-03-29T04:40:06.352Z,69.00
2018-03-29T04:42:36.215Z,74.03
2018-03-29T04:45:05.564Z,70.80
2018-03-29T04:47:34.762Z,79.40
2018-03-29T04:50:03.930Z,89.60
2018-03-29T04:52:33.613Z,83.15
2018-03-29T04:55:02.970Z,83.05
2018-03-29T04:57:32.271Z,116.12
2018-03-29T05:00:01.470Z,94.68
2018-03-29T05:02:31.331Z,76.95
2018-03-29T05:05:00.526Z,79.47
2018-03-29T05:07:29.876Z,73.03
2018-03-29T05:09:59.494Z,67.80
2018-03-29T05:12:28.684Z,73.70
2018-03-29T05:14:57.988Z,64.12
2018-03-29T05:17:27.223Z,63.05
2018-03-29T05:19:56.534Z,61.85
2018-03-29T05:22:25.682Z,57.55
2018-03-29T05:24:54.761Z,53.42
2018-03-29T05:27:26.067Z,53.87
2018-03-29T05:29:55.281Z,56.40
2018-03-29T05:32:24.641Z,56.75
2018-03-29T05:34:54.015Z,64.97
2018-03-29T05:37:23.200Z,110.75
2018-03-29T05:39:52.331Z,128.50
2018-03-29T05:42:21.538Z,99.78
2018-03-29T05:44:50.822Z,101.18
2018-03-29T05:47:19.966Z,79.93
2018-03-29T05:49:49.114Z,60.35
2018-03-29T05:52:18.343Z,62.75
2018-03-29T05:54:47.558Z,75.78
2018-03-29T05:57:16.842Z,68.57
2018-03-29T05:59:46.076Z,62.22
2018-03-29T06:02:15.370Z,58.85
2018-03-29T06:04:44.497Z,63.08
2018-03-29T06:07:13.550Z,64.37
2018-03-29T06:09:43.428Z,60.50
2018-03-29T06:12:12.617Z,64.12
2018-03-29T06:14:45.677Z,62.88
2018-03-29T06:17:21.058Z,58.85
2018-03-29T06:19:50.203Z,53.03
2018-03-29T06:22:19.210Z,53.95
2018-03-29T06:24:48.457Z,49.67
2018-03-29T06:27:18.278Z,48.28
2018-03-29T06:29:47.543Z,50.58
2018-03-29T06:32:16.722Z,51.97
2018-03-29T06:34:45.881Z,49.72
2018-03-29T06:37:15.075Z,47.88
2018-03-29T06:39:44.221Z,50.25
2018-03-29T06:42:13.542Z,47.13
2018-03-29T06:44:42.682Z,51.35
2018-03-29T06:47:11.823Z,56.42
2018-03-29T06:49:41.137Z,82.97
2018-03-29T06:52:10.410Z,88.80
2018-03-29T06:54:39.611Z,76.75
2018-03-29T06:57:08.707Z,69.72
2018-03-29T06:59:38.011Z,68.07
2018-03-29T07:02:07.215Z,64.03
2018-03-29T07:04:36.402Z,50.30
2018-03-29T07:07:06.509Z,72.30
2018-03-29T07:09:35.977Z,57.47
2018-03-29T07:12:05.121Z,56.60
2018-03-29T07:14:34.843Z,56.65
2018-03-29T07:17:04.210Z,55.03
2018-03-29T07:19:33.447Z,51.88
2018-03-29T07:22:02.655Z,54.58
2018-03-29T07:24:31.733Z,55.72
2018-03-29T07:27:00.869Z,50.12
2018-03-29T07:29:30.245Z,45.95
2018-03-29T07:31:59.443Z,48.23
2018-03-29T07:34:28.657Z,46.37
2018-03-29T07:36:57.990Z,57.87
2018-03-29T07:39:27.349Z,57.67
2018-03-29T07:41:56.435Z,45.40
2018-03-29T07:44:25.575Z,49.70
2018-03-29T07:46:54.750Z,46.63
2018-03-29T07:49:23.880Z,48.30
2018-03-29T07:51:52.913Z,41.87
2018-03-29T07:54:22.235Z,42.37
2018-03-29T07:56:51.368Z,40.47
2018-03-29T07:59:20.745Z,44.50
2018-03-29T08:01:49.913Z,41.50
2018-03-29T08:04:20.096Z,43.40
2018-03-29T08:06:49.329Z,45.80
2018-03-29T08:09:18.495Z,41.37
2018-03-29T08:11:47.534Z,44.13
2018-03-29T08:14:16.749Z,50.33
2018-03-29T08:16:46.293Z,46.30
2018-03-29T08:19:15.543Z,48.50
2018-03-29T08:21:44.679Z,41.03
2018-03-29T08:24:13.888Z,43.33
2018-03-29T08:26:43.149Z,43.90
2018-03-29T08:29:12.231Z,45.27
2018-03-29T08:31:41.430Z,43.87
2018-03-29T08:34:10.628Z,45.60
2018-03-29T08:36:39.857Z,40.57
2018-03-29T08:39:09.071Z,42.57
2018-03-29T08:41:39.300Z,40.27
2018-03-29T08:44:08.739Z,46.73
2018-03-29T08:46:38.206Z,44.50
2018-03-29T08:49:07.400Z,41.07
2018-03-29T08:51:36.702Z,34.60
2018-03-29T08:54:05.954Z,39.40
2018-03-29T08:56:35.185Z,42.80
2018-03-29T08:59:04.346Z,38.80
2018-03-29T09:01:34.055Z,39.70
2018-03-29T09:04:03.415Z,37.30
2018-03-29T09:06:32.700Z,42.07
2018-03-29T09:09:01.997Z,37.13
2018-03-29T09:11:31.270Z,35.23
2018-03-29T09:14:00.358Z,41.37
2018-03-29T09:16:29.635Z,39.27
2018-03-29T09:18:59.273Z,43.23
2018-03-29T09:21:28.353Z,39.63
2018-03-29T09:23:57.750Z,30.07
2018-03-29T09:26:27.079Z,29.27
2018-03-29T09:28:56.318Z,28.93
2018-03-29T09:31:25.367Z,31.07
2018-03-29T09:33:54.704Z,33.70
2018-03-29T09:36:23.803Z,28.27
2018-03-29T09:38:53.010Z,32.27
2018-03-29T09:41:22.063Z,32.13
2018-03-29T09:43:51.254Z,25.90
2018-03-29T09:46:21.014Z,31.97
2018-03-29T09:48:50.167Z,27.03
2018-03-29T09:51:19.358Z,26.37
2018-03-29T09:53:48.770Z,28.00
2018-03-29T09:56:18.018Z,28.80
2018-03-29T09:58:47.197Z,28.00
2018-03-29T10:01:16.512Z,27.97
2018-03-29T10:03:51.287Z,26.57
2018-03-29T10:06:25.991Z,28.40
2018-03-29T10:08:55.391Z,26.47
2018-03-29T10:11:24.568Z,26.33
2018-03-29T10:13:53.887Z,27.57
2018-03-29T10:16:23.321Z,25.43
2018-03-29T10:18:52.485Z,27.80
2018-03-29T10:21:21.757Z,25.77
2018-03-29T10:23:50.946Z,25.57
2018-03-29T10:26:20.372Z,23.20
2018-03-29T10:28:49.527Z,25.07
2018-03-29T10:31:18.723Z,26.67
2018-03-29T10:33:47.914Z,27.60
2018-03-29T10:36:17.053Z,26.37
2018-03-29T10:38:46.398Z,27.80
2018-03-29T10:41:15.669Z,24.67
2018-03-29T10:43:44.647Z,25.63
2018-03-29T10:46:14.168Z,26.03
2018-03-29T10:48:43.513Z,26.27
2018-03-29T10:51:12.876Z,23.73
2018-03-29T10:53:42.170Z,25.53
2018-03-29T10:56:11.274Z,25.03
2018-03-29T10:58:40.901Z,24.67
2018-03-29T11:01:10.129Z,24.53
2018-03-29T11:03:39.188Z,22.30
2018-03-29T11:06:09.097Z,24.23
2018-03-29T11:08:38.359Z,24.83
2018-03-29T11:11:07.445Z,24.60
2018-03-29T11:13:36.680Z,24.63
2018-03-29T11:16:06.038Z,23.70
2018-03-29T11:18:35.237Z,21.87
2018-03-29T11:21:04.342Z,31.53
2018-03-29T11:23:33.526Z,21.73
2018-03-29T11:26:02.778Z,25.10
2018-03-29T11:28:32.049Z,21.53
2018-03-29T11:31:01.116Z,25.00
2018-03-29T11:33:30.467Z,21.60
2018-03-29T11:35:59.740Z,20.90
2018-03-29T11:38:29.081Z,20.03
2018-03-29T11:40:58.174Z,22.43
2018-03-29T11:43:27.480Z,21.13
2018-03-29T11:45:56.679Z,21.50
2018-03-29T11:48:25.913Z,23.17
2018-03-29T11:50:55.804Z,23.50
2018-03-29T11:53:24.998Z,20.27
2018-03-29T11:55:54.187Z,20.17
2018-03-29T11:58:24.153Z,20.17
2018-03-29T12:00:53.549Z,21.83
2018-03-29T12:03:22.912Z,20.77
2018-03-29T12:05:52.274Z,21.57
2018-03-29T12:08:21.616Z,18.70
2018-03-29T12:10:50.704Z,24.80
2018-03-29T12:13:19.867Z,22.50
2018-03-29T12:15:49.122Z,22.57
2018-03-29T12:18:18.363Z,21.57
2018-03-29T12:20:47.657Z,22.60
2018-03-29T12:23:16.986Z,26.30
2018-03-29T12:25:46.050Z,27.50
2018-03-29T12:28:15.410Z,28.33
2018-03-29T12:30:44.646Z,33.13
2018-03-29T12:33:13.741Z,31.80
2018-03-29T12:35:43.090Z,29.77
2018-03-29T12:38:12.382Z,33.83
2018-03-29T12:40:41.552Z,40.57
2018-03-29T12:43:11.010Z,42.30
2018-03-29T12:45:40.150Z,49.17
2018-03-29T12:48:09.282Z,44.70
2018-03-29T12:50:38.517Z,40.40
2018-03-29T12:53:07.642Z,41.80
2018-03-29T12:55:41.887Z,42.53
2018-03-29T12:58:11.702Z,43.03
2018-03-29T13:00:40.973Z,44.00
2018-03-29T13:03:10.128Z,43.53
2018-03-29T13:05:39.318Z,45.57
2018-03-29T13:08:13.841Z,42.23
2018-03-29T13:10:43.766Z,46.53
2018-03-29T13:13:13.109Z,46.73
2018-03-29T13:15:42.359Z,41.80
2018-03-29T13:18:12.254Z,40.67
2018-03-29T13:20:41.525Z,40.93
2018-03-29T13:23:10.880Z,39.63
2018-03-29T13:25:40.288Z,38.83
2018-03-29T13:28:09.321Z,39.10
2018-03-29T13:30:38.683Z,36.40
2018-03-29T13:33:07.978Z,35.23
2018-03-29T13:35:37.161Z,43.60
2018-03-29T13:38:06.332Z,34.67
2018-03-29T13:40:35.413Z,40.07
2018-03-29T13:43:04.659Z,43.23
2018-03-29T13:45:33.846Z,43.77
2018-03-29T13:48:02.968Z,38.77
2018-03-29T13:50:32.213Z,45.17
2018-03-29T13:53:01.567Z,42.07
2018-03-29T13:55:30.713Z,36.67
2018-03-29T13:58:00.166Z,41.53
2018-03-29T14:00:29.350Z,39.83
2018-03-29T14:02:58.637Z,42.30
2018-03-29T14:05:27.806Z,38.50
2018-03-29T14:07:57.073Z,37.97
2018-03-29T14:10:26.270Z,37.10
2018-03-29T14:12:55.614Z,41.07
2018-03-29T14:15:25.802Z,44.27
2018-03-29T14:17:54.947Z,40.30
2018-03-29T14:20:24.294Z,40.77
2018-03-29T14:22:53.641Z,37.63
2018-03-29T14:25:22.843Z,37.17
2018-03-29T14:27:52.082Z,40.37
2018-03-29T14:30:21.287Z,37.47
2018-03-29T14:32:50.378Z,37.67
2018-03-29T14:35:19.907Z,38.50
2018-03-29T14:37:49.085Z,40.43
2018-03-29T14:40:18.338Z,37.53
2018-03-29T14:42:47.448Z,37.90
2018-03-29T14:45:16.786Z,40.67
2018-03-29T14:47:45.989Z,38.57
2018-03-29T14:50:15.143Z,38.77
2018-03-29T14:52:44.350Z,40.33
2018-03-29T14:55:13.584Z,44.37
2018-03-29T14:57:42.986Z,42.03
2018-03-29T15:00:12.283Z,42.00
2018-03-29T15:02:41.321Z,40.83
2018-03-29T15:05:10.783Z,44.47
2018-03-29T15:07:40.043Z,43.47
2018-03-29T15:10:09.258Z,41.53
2018-03-29T15:12:38.425Z,40.27
2018-03-29T15:15:07.889Z,42.37
2018-03-29T15:17:37.200Z,41.97
2018-03-29T15:20:06.387Z,43.80
2018-03-29T15:22:35.448Z,37.80
2018-03-29T15:25:04.498Z,42.17
2018-03-29T15:27:33.810Z,43.07
2018-03-29T15:30:02.831Z,37.13
2018-03-29T15:32:32.280Z,40.13
2018-03-29T15:35:01.322Z,39.70
2018-03-29T15:37:30.621Z,37.57
2018-03-29T15:40:00.146Z,37.67
2018-03-29T15:42:29.317Z,35.80
2018-03-29T15:44:58.557Z,39.37
2018-03-29T15:47:27.658Z,37.43
2018-03-29T15:49:56.813Z,37.77
2018-03-29T15:52:26.079Z,35.90
2018-03-29T15:54:55.249Z,35.77
2018-03-29T15:57:24.271Z,36.93
2018-03-29T15:59:53.397Z,37.37
2018-03-29T16:02:22.507Z,40.00
2018-03-29T16:04:51.603Z,36.10
2018-03-29T16:07:21.058Z,39.90
2018-03-29T16:09:50.105Z,34.47
2018-03-29T16:12:19.299Z,36.20
2018-03-29T16:14:48.446Z,36.80
2018-03-29T16:17:17.669Z,41.83
2018-03-29T16:19:46.885Z,46.07
2018-03-29T16:22:16.040Z,39.07
2018-03-29T16:24:46.182Z,42.63
2018-03-29T16:27:15.156Z,41.17
2018-03-29T16:29:44.355Z,44.83
2018-03-29T16:32:13.385Z,39.60
2018-03-29T16:34:42.594Z,42.40
2018-03-29T16:37:11.725Z,44.13
2018-03-29T16:39:40.942Z,53.77
2018-03-29T16:42:10.310Z,43.00
2018-03-29T16:44:39.406Z,42.70
2018-03-29T16:47:08.551Z,39.87
2018-03-29T16:49:37.814Z,47.83
2018-03-29T16:52:06.977Z,46.37
2018-03-29T16:54:36.217Z,49.03
2018-03-29T16:57:05.588Z,51.23
2018-03-29T16:59:34.833Z,48.55
2018-03-29T17:02:03.887Z,52.67
2018-03-29T17:04:32.979Z,62.05
2018-03-29T17:07:02.067Z,54.50
2018-03-29T17:09:31.186Z,55.95
2018-03-29T17:12:00.380Z,47.95
2018-03-29T17:14:29.573Z,53.50
2018-03-29T17:16:58.684Z,50.33
2018-03-29T17:19:28.030Z,52.90
2018-03-29T17:21:57.313Z,55.75
2018-03-29T17:24:26.481Z,51.10
2018-03-29T17:26:55.506Z,58.30
2018-03-29T17:29:24.609Z,56.22
2018-03-29T17:31:53.751Z,90.78
2018-03-29T17:34:23.045Z,70.43
2018-03-29T17:36:52.196Z,65.30
2018-03-29T17:39:21.394Z,56.58
2018-03-29T17:41:50.665Z,65.47
2018-03-29T17:44:19.858Z,55.23
2018-03-29T17:46:49.194Z,52.97
2018-03-29T17:49:18.562Z,65.72
2018-03-29T17:51:47.838Z,59.55
2018-03-29T17:54:17.127Z,51.72
2018-03-29T17:56:46.381Z,48.92
2018-03-29T17:59:15.547Z,51.35
2018-03-29T18:01:44.739Z,52.35
2018-03-29T18:04:14.234Z,55.45
2018-03-29T18:06:43.342Z,58.58
2018-03-29T18:09:12.587Z,54.65
2018-03-29T18:11:41.587Z,56.75
2018-03-29T18:14:10.602Z,65.43
2018-03-29T18:16:39.765Z,58.90
2018-03-29T18:19:08.770Z,60.40
2018-03-29T18:21:37.929Z,63.33
2018-03-29T18:24:07.190Z,63.55
2018-03-29T18:26:36.379Z,58.65
2018-03-29T18:29:05.775Z,65.65
2018-03-29T18:31:34.919Z,78.93
2018-03-29T18:34:04.427Z,93.72
2018-03-29T18:36:33.696Z,79.93
2018-03-29T18:39:03.054Z,86.50
2018-03-29T18:41:32.091Z,94.20
2018-03-29T18:44:01.153Z,101.32
2018-03-29T18:46:30.364Z,112.35
2018-03-29T18:48:59.535Z,109.05
2018-03-29T18:51:28.866Z,113.97
2018-03-29T18:53:57.980Z,115.50
2018-03-29T18:56:27.250Z,108.87
2018-03-29T18:58:56.501Z,115.15
2018-03-29T19:01:26.780Z,112.22
2018-03-29T19:03:55.921Z,120.18
2018-03-29T19:06:25.076Z,122.47
2018-03-29T19:08:54.374Z,125.05
2018-03-29T19:11:23.449Z,125.62
2018-03-29T19:13:53.136Z,124.55
2018-03-29T19:16:22.382Z,126.12
2018-03-29T19:18:51.452Z,124.93
2018-03-29T19:21:20.962Z,120.47
2018-03-29T19:23:50.086Z,118.78
2018-03-29T19:26:19.213Z,106.97
2018-03-29T19:28:48.476Z,118.57
2018-03-29T19:31:17.746Z,121.87
2018-03-29T19:33:47.053Z,125.38
2018-03-29T19:36:16.259Z,120.22
2018-03-29T19:38:45.545Z,117.35
2018-03-29T19:41:14.723Z,109.95
2018-03-29T19:43:43.957Z,109.68
2018-03-29T19:46:13.128Z,110.70
2018-03-29T19:48:42.205Z,115.78
2018-03-29T19:51:11.319Z,111.93
2018-03-29T19:53:40.427Z,113.03
2018-03-29T19:56:09.738Z,114.55
2018-03-29T19:58:38.971Z,113.68
2018-03-29T20:01:08.138Z,116.97
2018-03-29T20:03:37.228Z,112.40
2018-03-29T20:06:06.451Z,116.00
2018-03-29T20:08:35.579Z,112.70
2018-03-29T20:11:05.410Z,112.60
2018-03-29T20:13:34.625Z,116.07
2018-03-29T20:16:04.070Z,124.38
2018-03-29T20:18:33.133Z,113.30
2018-03-29T20:21:02.401Z,119.22
2018-03-29T20:23:31.877Z,121.78
2018-03-29T20:26:01.205Z,121.00
2018-03-29T20:28:30.259Z,116.65
2018-03-29T20:30:59.411Z,123.22
2018-03-29T20:33:28.657Z,113.85
2018-03-29T20:35:57.950Z,108.95
2018-03-29T20:38:27.102Z,120.95
2018-03-29T20:40:56.422Z,115.65
2018-03-29T20:43:25.647Z,120.80
2018-03-29T20:45:55.361Z,117.37
2018-03-29T20:48:24.554Z,115.75
2018-03-29T20:50:53.615Z,109.50
2018-03-29T20:53:22.806Z,114.00
2018-03-29T20:55:52.052Z,119.13
2018-03-29T20:58:21.401Z,119.97
2018-03-29T21:00:50.604Z,111.75
2018-03-29T21:03:19.789Z,119.20
2018-03-29T21:05:49.221Z,120.05
2018-03-29T21:08:18.442Z,113.35
2018-03-29T21:10:47.599Z,111.57
2018-03-29T21:13:16.833Z,112.80
2018-03-29T21:15:46.054Z,120.60
2018-03-29T21:18:15.190Z,125.45
2018-03-29T21:20:44.396Z,121.40
2018-03-29T21:23:13.478Z,123.00
2018-03-29T21:25:42.846Z,117.62
2018-03-29T21:28:12.244Z,121.15
2018-03-29T21:30:41.491Z,109.87
2018-03-29T21:33:10.887Z,109.15
2018-03-29T21:35:40.257Z,109.10
2018-03-29T21:38:10.257Z,121.47
2018-03-29T21:40:39.567Z,128.57
2018-03-29T21:43:08.680Z,121.25
2018-03-29T21:45:37.873Z,118.03
2018-03-29T21:48:07.101Z,117.78
2018-03-29T21:50:36.254Z,116.28
2018-03-29T21:53:05.433Z,117.80
2018-03-29T21:55:35.427Z,129.52
2018-03-29T21:58:04.876Z,137.98
2018-03-29T22:00:34.199Z,145.25
2018-03-29T22:03:03.417Z,156.57
2018-03-29T22:05:32.785Z,150.70
2018-03-29T22:08:01.918Z,149.80
2018-03-29T22:10:31.216Z,164.82
2018-03-29T22:13:00.559Z,169.37
2018-03-29T22:15:29.713Z,160.18
2018-03-29T22:17:58.965Z,164.70
2018-03-29T22:20:28.243Z,161.02
2018-03-29T22:22:57.419Z,161.50
2018-03-29T22:25:26.569Z,157.73
2018-03-29T22:27:55.754Z,163.57
2018-03-29T22:30:24.933Z,168.48
2018-03-29T22:32:54.138Z,172.07
2018-03-29T22:35:23.212Z,180.07
2018-03-29T22:37:52.446Z,176.90
2018-03-29T22:40:21.494Z,182.55
2018-03-29T22:42:50.794Z,177.50
2018-03-29T22:45:20.044Z,168.95
2018-03-29T22:47:49.195Z,182.43
2018-03-29T22:50:18.417Z,205.73
2018-03-29T22:52:47.549Z,219.40
2018-03-29T22:55:16.794Z,198.00
2018-03-29T22:57:45.887Z,201.50
2018-03-29T23:00:15.121Z,206.87
2018-03-29T23:02:43.797Z,186.12
2018-03-29T23:05:12.967Z,203.80
2018-03-29T23:07:42.175Z,185.02
2018-03-29T23:10:11.429Z,187.10
2018-03-29T23:12:40.517Z,208.02
2018-03-29T23:17:44.949Z,183.02
2018-03-29T23:20:14.054Z,184.68
2018-03-29T23:22:43.186Z,185.10
2018-03-29T23:25:12.550Z,200.50
2018-03-29T23:27:41.681Z,188.12
2018-03-29T23:30:10.886Z,190.90
2018-03-29T23:32:40.192Z,176.20
2018-03-29T23:35:09.412Z,186.07
2018-03-29T23:37:38.622Z,177.15
2018-03-29T23:40:08.011Z,171.52
2018-03-29T23:42:37.282Z,158.23
2018-03-29T23:45:06.646Z,135.95
2018-03-29T23:47:36.534Z,136.15
2018-03-29T23:50:05.809Z,130.70
2018-03-29T23:52:34.955Z,139.60
2018-03-29T23:55:04.297Z,132.95
2018-03-29T23:57:33.498Z,133.98
